sensor_id;sensor_type;location;lat;lon;timestamp;pressure;altitude;pressure_sealevel;temperature;humidity
43621;BME280;29213;50.770;7.298;2023-02-08T00:02:22;103146.75;;;-3.63;54.35
43621;BME280;29213;50.770;7.298;2023-02-08T00:04:48;103118.16;;;-3.77;54.67
43621;BME280;29213;50.770;7.298;2023-02-08T00:07:13;103150.19;;;-3.58;55.02
43621;BME280;29213;50.770;7.298;2023-02-08T00:09:38;103124.22;;;-3.75;55.53
43621;BME280;29213;50.770;7.298;2023-02-08T00:12:04;103128.53;;;-3.72;55.03
43621;BME280;29213;50.770;7.298;2023-02-08T00:14:29;103132.91;;;-3.76;54.97
43621;BME280;29213;50.770;7.298;2023-02-08T00:16:55;103172.69;;;-3.46;54.65
43621;BME280;29213;50.770;7.298;2023-02-08T00:19:20;103119.88;;;-3.79;54.59
43621;BME280;29213;50.770;7.298;2023-02-08T00:21:46;103132.84;;;-3.67;55.05
43621;BME280;29213;50.770;7.298;2023-02-08T00:24:11;103167.47;;;-3.48;55.41
43621;BME280;29213;50.770;7.298;2023-02-08T00:26:36;103034.19;;;-4.26;55.67
43621;BME280;29213;50.770;7.298;2023-02-08T00:29:02;103146.72;;;-3.62;55.27
43621;BME280;29213;50.770;7.298;2023-02-08T00:31:28;103059.28;;;-4.12;55.18
43621;BME280;29213;50.770;7.298;2023-02-08T00:33:53;103067.97;;;-4.17;55.25
43621;BME280;29213;50.770;7.298;2023-02-08T00:36:18;103166.69;;;-3.62;55.44
43621;BME280;29213;50.770;7.298;2023-02-08T00:38:44;103140.72;;;-3.76;55.46
43621;BME280;29213;50.770;7.298;2023-02-08T00:41:09;103099.16;;;-4.07;55.23
43621;BME280;29213;50.770;7.298;2023-02-08T00:43:35;103155.53;;;-3.88;55.46
43621;BME280;29213;50.770;7.298;2023-02-08T00:46:00;103158.97;;;-3.84;56.14
43621;BME280;29213;50.770;7.298;2023-02-08T00:48:26;103154.63;;;-3.77;56.34
43621;BME280;29213;50.770;7.298;2023-02-08T00:50:59;103116.50;;;-3.98;55.84
43621;BME280;29213;50.770;7.298;2023-02-08T00:53:25;103098.25;;;-3.97;55.69
43621;BME280;29213;50.770;7.298;2023-02-08T00:55:52;103076.63;;;-4.11;55.35
43621;BME280;29213;50.770;7.298;2023-02-08T00:58:17;103105.19;;;-3.91;56.12
43621;BME280;29213;50.770;7.298;2023-02-08T01:00:43;103112.06;;;-3.79;55.39
43621;BME280;29213;50.770;7.298;2023-02-08T01:03:09;103123.31;;;-3.74;55.40
43621;BME280;29213;50.770;7.298;2023-02-08T01:05:36;103075.75;;;-4.04;55.46
43621;BME280;29213;50.770;7.298;2023-02-08T01:08:02;103100.00;;;-3.91;55.34
43621;BME280;29213;50.770;7.298;2023-02-08T01:10:28;103107.78;;;-3.87;55.09
43621;BME280;29213;50.770;7.298;2023-02-08T01:12:53;103109.53;;;-3.89;54.97
43621;BME280;29213;50.770;7.298;2023-02-08T01:15:18;103155.44;;;-3.66;55.14
43621;BME280;29213;50.770;7.298;2023-02-08T01:17:44;103119.03;;;-3.80;55.13
43621;BME280;29213;50.770;7.298;2023-02-08T01:20:10;103158.88;;;-3.62;55.16
43621;BME280;29213;50.770;7.298;2023-02-08T01:22:35;103132.06;;;-3.80;54.71
43621;BME280;29213;50.770;7.298;2023-02-08T01:25:00;103087.91;;;-4.11;55.10
43621;BME280;29213;50.770;7.298;2023-02-08T01:27:26;103112.13;;;-3.92;55.24
43621;BME280;29213;50.770;7.298;2023-02-08T01:29:51;103081.84;;;-4.18;54.68
43621;BME280;29213;50.770;7.298;2023-02-08T01:32:17;103144.22;;;-3.85;55.23
43621;BME280;29213;50.770;7.298;2023-02-08T01:34:42;103158.09;;;-3.80;55.45
43621;BME280;29213;50.770;7.298;2023-02-08T01:37:08;103081.91;;;-4.30;54.79
43621;BME280;29213;50.770;7.298;2023-02-08T01:39:34;103062.88;;;-4.48;55.78
43621;BME280;29213;50.770;7.298;2023-02-08T01:41:59;103138.19;;;-3.99;55.46
43621;BME280;29213;50.770;7.298;2023-02-08T01:47:28;103112.25;;;-4.26;55.14
43621;BME280;29213;50.770;7.298;2023-02-08T01:49:54;103120.06;;;-4.35;54.78
43621;BME280;29213;50.770;7.298;2023-02-08T01:52:23;103145.25;;;-4.44;55.61
43621;BME280;29213;50.770;7.298;2023-02-08T01:54:56;103098.44;;;-4.69;55.61
43621;BME280;29213;50.770;7.298;2023-02-08T01:57:23;103130.53;;;-4.59;55.66
43621;BME280;29213;50.770;7.298;2023-02-08T01:59:56;103094.13;;;-4.85;55.96
43621;BME280;29213;50.770;7.298;2023-02-08T02:02:24;103136.59;;;-4.49;55.68
43621;BME280;29213;50.770;7.298;2023-02-08T02:04:51;103102.78;;;-4.82;55.95
43621;BME280;29213;50.770;7.298;2023-02-08T02:07:18;103137.44;;;-4.53;55.60
43621;BME280;29213;50.770;7.298;2023-02-08T02:09:50;103124.44;;;-4.61;55.94
43621;BME280;29213;50.770;7.298;2023-02-08T02:12:17;103121.84;;;-4.59;56.36
43621;BME280;29213;50.770;7.298;2023-02-08T02:14:43;103030.91;;;-5.03;57.00
43621;BME280;29213;50.770;7.298;2023-02-08T02:17:10;103084.59;;;-4.63;57.02
43621;BME280;29213;50.770;7.298;2023-02-08T02:25:51;103113.97;;;-4.22;56.00
43621;BME280;29213;50.770;7.298;2023-02-08T02:34:30;103123.50;;;-4.13;56.02
43621;BME280;29213;50.770;7.298;2023-02-08T02:42:04;103116.53;;;-4.14;55.45
43621;BME280;29213;50.770;7.298;2023-02-08T02:48:19;103111.38;;;-4.34;55.13
43621;BME280;29213;50.770;7.298;2023-02-08T02:50:53;103104.50;;;-4.52;55.15
43621;BME280;29213;50.770;7.298;2023-02-08T02:56:14;103095.00;;;-4.80;55.45
43621;BME280;29213;50.770;7.298;2023-02-08T02:58:42;103086.34;;;-4.88;56.11
43621;BME280;29213;50.770;7.298;2023-02-08T03:01:08;103129.66;;;-4.58;56.44
43621;BME280;29213;50.770;7.298;2023-02-08T03:03:34;103098.47;;;-4.75;56.04
43621;BME280;29213;50.770;7.298;2023-02-08T03:06:04;103047.34;;;-5.12;56.07
43621;BME280;29213;50.770;7.298;2023-02-08T03:17:11;103126.19;;;-4.82;57.03
43621;BME280;29213;50.770;7.298;2023-02-08T03:25:28;103095.03;;;-4.97;57.33
43621;BME280;29213;50.770;7.298;2023-02-08T03:28:08;103107.16;;;-4.87;57.16
43621;BME280;29213;50.770;7.298;2023-02-08T03:30:42;103105.41;;;-4.83;57.28
43621;BME280;29213;50.770;7.298;2023-02-08T03:35:58;102986.75;;;-5.51;57.17
43621;BME280;29213;50.770;7.298;2023-02-08T03:38:40;103134.00;;;-4.58;57.25
43621;BME280;29213;50.770;7.298;2023-02-08T03:41:10;103058.63;;;-5.08;57.08
43621;BME280;29213;50.770;7.298;2023-02-08T03:43:59;103072.47;;;-4.98;57.13
43621;BME280;29213;50.770;7.298;2023-02-08T03:46:42;103121.88;;;-4.73;57.07
43621;BME280;29213;50.770;7.298;2023-02-08T03:49:14;103119.28;;;-4.72;57.15
43621;BME280;29213;50.770;7.298;2023-02-08T03:51:42;103135.72;;;-4.62;56.48
43621;BME280;29213;50.770;7.298;2023-02-08T03:54:13;103137.47;;;-4.70;56.52
43621;BME280;29213;50.770;7.298;2023-02-08T03:56:52;103071.59;;;-5.16;56.43
43621;BME280;29213;50.770;7.298;2023-02-08T03:59:23;103134.00;;;-4.85;56.52
43621;BME280;29213;50.770;7.298;2023-02-08T04:01:59;103081.13;;;-5.19;56.63
43621;BME280;29213;50.770;7.298;2023-02-08T04:04:28;103084.59;;;-5.21;56.88
43621;BME280;29213;50.770;7.298;2023-02-08T04:06:55;103069.84;;;-5.53;57.17
43621;BME280;29213;50.770;7.298;2023-02-08T04:09:20;103042.94;;;-5.86;57.33
43621;BME280;29213;50.770;7.298;2023-02-08T04:11:46;103073.31;;;-5.51;57.46
43621;BME280;29213;50.770;7.298;2023-02-08T04:14:11;103087.19;;;-5.53;57.48
43621;BME280;29213;50.770;7.298;2023-02-08T04:16:36;103083.69;;;-5.54;57.52
43621;BME280;29213;50.770;7.298;2023-02-08T04:19:02;103073.28;;;-5.57;57.32
43621;BME280;29213;50.770;7.298;2023-02-08T04:21:27;103074.16;;;-5.56;57.87
43621;BME280;29213;50.770;7.298;2023-02-08T04:23:53;103007.41;;;-6.03;57.57
43621;BME280;29213;50.770;7.298;2023-02-08T04:26:18;103064.63;;;-5.59;57.91
43621;BME280;29213;50.770;7.298;2023-02-08T04:28:43;103038.66;;;-5.65;58.15
43621;BME280;29213;50.770;7.298;2023-02-08T04:31:09;103095.84;;;-5.18;57.81
43621;BME280;29213;50.770;7.298;2023-02-08T04:33:34;103051.69;;;-5.39;57.45
43621;BME280;29213;50.770;7.298;2023-02-08T04:36:00;103075.06;;;-5.26;57.57
43621;BME280;29213;50.770;7.298;2023-02-08T04:38:25;103102.81;;;-5.08;57.56
43621;BME280;29213;50.770;7.298;2023-02-08T04:40:51;103025.69;;;-5.46;57.79
43621;BME280;29213;50.770;7.298;2023-02-08T04:43:16;103104.56;;;-5.09;57.17
43621;BME280;29213;50.770;7.298;2023-02-08T04:45:41;103116.66;;;-5.18;57.61
43621;BME280;29213;50.770;7.298;2023-02-08T04:48:07;103064.66;;;-5.56;57.23
43621;BME280;29213;50.770;7.298;2023-02-08T04:50:33;103104.50;;;-5.38;57.60
43621;BME280;29213;50.770;7.298;2023-02-08T04:52:59;103023.91;;;-5.86;57.70
43621;BME280;29213;50.770;7.298;2023-02-08T04:55:24;103086.25;;;-5.63;57.42
43621;BME280;29213;50.770;7.298;2023-02-08T04:57:49;103070.66;;;-5.77;57.88
43621;BME280;29213;50.770;7.298;2023-02-08T05:00:15;103119.25;;;-5.28;58.07
43621;BME280;29213;50.770;7.298;2023-02-08T05:02:41;103092.38;;;-5.30;58.35
43621;BME280;29213;50.770;7.298;2023-02-08T05:05:06;103115.78;;;-5.08;57.82
43621;BME280;29213;50.770;7.298;2023-02-08T05:07:32;103105.41;;;-5.08;57.48
43621;BME280;29213;50.770;7.298;2023-02-08T05:09:57;103097.63;;;-5.11;57.78
43621;BME280;29213;50.770;7.298;2023-02-08T05:12:22;103104.56;;;-5.01;57.44
43621;BME280;29213;50.770;7.298;2023-02-08T05:14:48;103068.16;;;-5.24;57.35
43621;BME280;29213;50.770;7.298;2023-02-08T05:17:13;103086.34;;;-5.13;57.24
43621;BME280;29213;50.770;7.298;2023-02-08T05:19:39;103114.06;;;-5.22;57.28
43621;BME280;29213;50.770;7.298;2023-02-08T05:22:04;103027.41;;;-5.77;57.59
43621;BME280;29213;50.770;7.298;2023-02-08T05:24:30;103093.25;;;-5.48;57.46
43621;BME280;29213;50.770;7.298;2023-02-08T05:26:55;103059.41;;;-5.73;57.79
43621;BME280;29213;50.770;7.298;2023-02-08T05:29:21;103115.75;;;-5.45;57.42
43621;BME280;29213;50.770;7.298;2023-02-08T05:31:46;103072.38;;;-5.84;57.47
43621;BME280;29213;50.770;7.298;2023-02-08T05:34:11;103023.88;;;-6.02;57.82
43621;BME280;29213;50.770;7.298;2023-02-08T05:36:37;103072.41;;;-5.61;57.11
43621;BME280;29213;50.770;7.298;2023-02-08T05:39:03;103085.44;;;-5.48;57.16
43621;BME280;29213;50.770;7.298;2023-02-08T05:41:29;103045.59;;;-5.63;56.71
43621;BME280;29213;50.770;7.298;2023-02-08T05:43:54;103127.06;;;-5.06;56.34
43621;BME280;29213;50.770;7.298;2023-02-08T05:46:20;103071.59;;;-5.47;56.17
43621;BME280;29213;50.770;7.298;2023-02-08T05:48:45;103003.13;;;-5.90;56.40
43621;BME280;29213;50.770;7.298;2023-02-08T05:51:11;103076.78;;;-5.42;56.81
43621;BME280;29213;50.770;7.298;2023-02-08T05:53:36;103127.06;;;-5.20;56.56
43621;BME280;29213;50.770;7.298;2023-02-08T05:56:02;103080.22;;;-5.57;56.80
43621;BME280;29213;50.770;7.298;2023-02-08T05:58:27;103067.22;;;-5.70;57.05
43621;BME280;29213;50.770;7.298;2023-02-08T06:00:53;103123.53;;;-5.42;57.14
43621;BME280;29213;50.770;7.298;2023-02-08T06:03:18;103038.59;;;-5.89;57.00
43621;BME280;29213;50.770;7.298;2023-02-08T06:05:44;103123.53;;;-5.44;57.26
43621;BME280;29213;50.770;7.298;2023-02-08T06:08:09;103085.38;;;-5.76;57.45
43621;BME280;29213;50.770;7.298;2023-02-08T06:10:35;103032.47;;;-6.08;57.29
43621;BME280;29213;50.770;7.298;2023-02-08T06:13:01;103100.09;;;-5.66;57.16
43621;BME280;29213;50.770;7.298;2023-02-08T06:15:27;103073.25;;;-5.79;57.35
43621;BME280;29213;50.770;7.298;2023-02-08T06:17:52;103118.34;;;-5.42;57.11
43621;BME280;29213;50.770;7.298;2023-02-08T06:20:18;103073.25;;;-5.74;57.09
43621;BME280;29213;50.770;7.298;2023-02-08T06:22:43;103081.91;;;-5.77;56.98
43621;BME280;29213;50.770;7.298;2023-02-08T06:25:09;103082.75;;;-5.82;57.57
43621;BME280;29213;50.770;7.298;2023-02-08T06:27:34;103069.75;;;-5.87;57.50
43621;BME280;29213;50.770;7.298;2023-02-08T06:30:00;103093.19;;;-5.71;57.20
43621;BME280;29213;50.770;7.298;2023-02-08T06:32:25;103081.00;;;-5.90;57.29
43621;BME280;29213;50.770;7.298;2023-02-08T06:34:50;103097.47;;;-5.89;57.60
43621;BME280;29213;50.770;7.298;2023-02-08T06:37:17;103132.09;;;-5.78;58.28
43621;BME280;29213;50.770;7.298;2023-02-08T06:39:42;103113.97;;;-5.67;58.57
43621;BME280;29213;50.770;7.298;2023-02-08T06:42:08;103095.78;;;-5.70;58.36
43621;BME280;29213;50.770;7.298;2023-02-08T06:44:33;103086.25;;;-5.69;58.16
43621;BME280;29213;50.770;7.298;2023-02-08T06:46:58;103085.41;;;-5.67;57.84
43621;BME280;29213;50.770;7.298;2023-02-08T06:49:24;103049.03;;;-5.79;57.74
43621;BME280;29213;50.770;7.298;2023-02-08T06:51:49;103105.38;;;-5.39;57.51
43621;BME280;29213;50.770;7.298;2023-02-08T06:54:15;103080.22;;;-5.54;57.67
43621;BME280;29213;50.770;7.298;2023-02-08T06:56:40;103136.59;;;-5.14;57.10
43621;BME280;29213;50.770;7.298;2023-02-08T06:59:06;103119.25;;;-5.18;57.07
43621;BME280;29213;50.770;7.298;2023-02-08T07:01:31;103139.19;;;-5.06;56.81
43621;BME280;29213;50.770;7.298;2023-02-08T07:03:56;103076.78;;;-5.42;56.69
43621;BME280;29213;50.770;7.298;2023-02-08T07:06:22;103140.94;;;-5.01;57.11
43621;BME280;29213;50.770;7.298;2023-02-08T07:08:47;103113.22;;;-5.11;57.25
43621;BME280;29213;50.770;7.298;2023-02-08T07:11:15;103134.88;;;-5.03;56.80
43621;BME280;29213;50.770;7.298;2023-02-08T07:13:41;103137.44;;;-5.17;56.56
43621;BME280;29213;50.770;7.298;2023-02-08T07:16:11;103128.78;;;-5.21;56.81
43621;BME280;29213;50.770;7.298;2023-02-08T07:18:37;103049.91;;;-5.57;57.03
43621;BME280;29213;50.770;7.298;2023-02-08T07:21:02;103066.41;;;-5.38;56.80
43621;BME280;29213;50.770;7.298;2023-02-08T07:23:28;103107.13;;;-5.12;56.55
43621;BME280;29213;50.770;7.298;2023-02-08T07:26:04;103127.06;;;-4.98;56.05
43621;BME280;29213;50.770;7.298;2023-02-08T07:28:30;103118.41;;;-4.96;55.92
43621;BME280;29213;50.770;7.298;2023-02-08T07:30:56;103114.09;;;-5.00;56.13
43621;BME280;29213;50.770;7.298;2023-02-08T07:33:22;103079.34;;;-4.44;67.02
43621;BME280;29213;50.770;7.298;2023-02-08T07:35:48;103119.78;;;-3.59;68.38
43621;BME280;29213;50.770;7.298;2023-02-08T07:38:13;103056.75;;;-4.33;58.38
43621;BME280;29213;50.770;7.298;2023-02-08T07:40:39;103119.19;;;-4.22;59.33
43621;BME280;29213;50.770;7.298;2023-02-08T07:43:04;103058.53;;;-4.43;57.15
43621;BME280;29213;50.770;7.298;2023-02-08T07:45:30;103074.94;;;-4.27;56.39
43621;BME280;29213;50.770;7.298;2023-02-08T07:47:56;103104.41;;;-4.10;56.34
43621;BME280;29213;50.770;7.298;2023-02-08T07:50:21;103051.56;;;-4.39;56.08
43621;BME280;29213;50.770;7.298;2023-02-08T07:52:46;103052.41;;;-4.35;55.84
43621;BME280;29213;50.770;7.298;2023-02-08T07:55:12;103055.00;;;-4.24;55.58
43621;BME280;29213;50.770;7.298;2023-02-08T07:57:44;103099.09;;;-3.92;55.59
43621;BME280;29213;50.770;7.298;2023-02-08T08:00:11;103050.63;;;-4.16;55.75
43621;BME280;29213;50.770;7.298;2023-02-08T08:02:38;103021.16;;;-4.28;55.56
43621;BME280;29213;50.770;7.298;2023-02-08T08:05:04;103035.00;;;-4.15;55.35
43621;BME280;29213;50.770;7.298;2023-02-08T08:07:29;103048.81;;;-4.00;55.15
43621;BME280;29213;50.770;7.298;2023-02-08T08:09:54;103088.59;;;-3.68;55.25
43621;BME280;29213;50.770;7.298;2023-02-08T08:12:20;103018.47;;;-4.09;55.11
43621;BME280;29213;50.770;7.298;2023-02-08T08:14:45;103040.91;;;-3.84;55.03
43621;BME280;29213;50.770;7.298;2023-02-08T08:17:11;103062.50;;;-3.67;54.93
43621;BME280;29213;50.770;7.298;2023-02-08T08:19:36;103061.59;;;-3.58;55.02
43621;BME280;29213;50.770;7.298;2023-02-08T08:22:02;103065.00;;;-3.48;54.68
43621;BME280;29213;50.770;7.298;2023-02-08T08:24:27;103003.56;;;-3.79;54.15
43621;BME280;29213;50.770;7.298;2023-02-08T08:26:54;103007.00;;;-3.77;54.00
43621;BME280;29213;50.770;7.298;2023-02-08T08:29:19;102968.91;;;-3.89;54.23
43621;BME280;29213;50.770;7.298;2023-02-08T08:31:45;102986.06;;;-3.64;53.86
43621;BME280;29213;50.770;7.298;2023-02-08T08:34:10;102992.94;;;-3.49;53.73
43621;BME280;29213;50.770;7.298;2023-02-08T08:36:36;102998.00;;;-3.34;53.16
43621;BME280;29213;50.770;7.298;2023-02-08T08:39:01;103050.69;;;-2.97;53.18
43621;BME280;29213;50.770;7.298;2023-02-08T08:41:27;103086.97;;;-2.71;52.99
43621;BME280;29213;50.770;7.298;2023-02-08T08:43:53;103062.72;;;-2.79;52.79
43621;BME280;29213;50.770;7.298;2023-02-08T08:46:18;103072.81;;;-2.49;52.93
43621;BME280;29213;50.770;7.298;2023-02-08T08:48:44;103077.88;;;-2.32;52.89
43621;BME280;29213;50.770;7.298;2023-02-08T08:51:11;103007.75;;;-2.63;53.07
43621;BME280;29213;50.770;7.298;2023-02-08T08:53:37;103054.19;;;-2.15;53.79
43621;BME280;29213;50.770;7.298;2023-02-08T08:56:03;102989.28;;;-2.45;53.18
43621;BME280;29213;50.770;7.298;2023-02-08T08:58:29;103073.72;;;-1.78;53.65
43621;BME280;29213;50.770;7.298;2023-02-08T09:00:56;103038.13;;;-1.87;52.55
43621;BME280;29213;50.770;7.298;2023-02-08T09:03:22;103069.03;;;-1.54;52.40
43621;BME280;29213;50.770;7.298;2023-02-08T09:05:48;103071.44;;;-1.42;52.41
43621;BME280;29213;50.770;7.298;2023-02-08T09:08:13;102976.34;;;-1.90;51.97
43621;BME280;29213;50.770;7.298;2023-02-08T09:10:41;102998.66;;;-1.67;52.07
43621;BME280;29213;50.770;7.298;2023-02-08T09:13:06;103053.75;;;-1.26;51.55
43621;BME280;29213;50.770;7.298;2023-02-08T09:15:31;103015.84;;;-1.53;49.89
43621;BME280;29213;50.770;7.298;2023-02-08T09:17:57;102981.28;;;-1.71;48.94
43621;BME280;29213;50.770;7.298;2023-02-08T09:20:22;103064.16;;;-1.23;48.51
43621;BME280;29213;50.770;7.298;2023-02-08T09:22:48;103043.47;;;-1.35;48.32
43621;BME280;29213;50.770;7.298;2023-02-08T09:25:13;103004.56;;;-1.55;48.27
43621;BME280;29213;50.770;7.298;2023-02-08T09:27:39;103002.69;;;-1.47;48.18
43621;BME280;29213;50.770;7.298;2023-02-08T09:30:04;102993.88;;;-1.41;47.52
43621;BME280;29213;50.770;7.298;2023-02-08T09:32:31;103054.13;;;-0.96;47.40
43621;BME280;29213;50.770;7.298;2023-02-08T09:35:01;103074.03;;;-0.87;46.72
43621;BME280;29213;50.770;7.298;2023-02-08T09:37:28;103074.13;;;-0.91;46.46
43621;BME280;29213;50.770;7.298;2023-02-08T09:39:53;103026.66;;;-1.22;46.24
43621;BME280;29213;50.770;7.298;2023-02-08T09:42:33;103061.03;;;-0.91;46.31
43621;BME280;29213;50.770;7.298;2023-02-08T09:45:20;103061.03;;;-0.91;45.63
43621;BME280;29213;50.770;7.298;2023-02-08T09:48:03;103058.09;;;-0.74;46.03
43621;BME280;29213;50.770;7.298;2023-02-08T09:50:37;103054.44;;;-0.64;46.05
43621;BME280;29213;50.770;7.298;2023-02-08T09:55:41;103052.16;;;-0.37;46.41
43621;BME280;29213;50.770;7.298;2023-02-08T09:58:16;102976.06;;;-0.73;45.37
43621;BME280;29213;50.770;7.298;2023-02-08T10:00:45;103052.78;;;-0.24;43.72
43621;BME280;29213;50.770;7.298;2023-02-08T10:03:38;103005.09;;;-0.40;44.65
43621;BME280;29213;50.770;7.298;2023-02-08T10:06:10;102992.78;;;-0.36;44.38
43621;BME280;29213;50.770;7.298;2023-02-08T10:08:38;103042.50;;;0.08;43.46
43621;BME280;29213;50.770;7.298;2023-02-08T10:14:27;103036.06;;;0.23;42.88
43621;BME280;29213;50.770;7.298;2023-02-08T10:20:08;103029.53;;;0.41;41.06
43621;BME280;29213;50.770;7.298;2023-02-08T10:26:11;103021.16;;;0.61;42.20
43621;BME280;29213;50.770;7.298;2023-02-08T10:31:42;103038.34;;;1.08;42.21
43621;BME280;29213;50.770;7.298;2023-02-08T10:36:50;103014.06;;;1.33;41.00
43621;BME280;29213;50.770;7.298;2023-02-08T10:39:18;102970.66;;;1.19;39.99
43621;BME280;29213;50.770;7.298;2023-02-08T10:41:44;103036.41;;;1.78;41.39
43621;BME280;29213;50.770;7.298;2023-02-08T10:49:37;102998.91;;;2.01;39.21
43621;BME280;29213;50.770;7.298;2023-02-08T10:52:06;103026.13;;;2.29;38.54
43621;BME280;29213;50.770;7.298;2023-02-08T10:54:35;103021.06;;;2.51;39.60
43621;BME280;29213;50.770;7.298;2023-02-08T10:57:04;102966.59;;;2.26;38.07
43621;BME280;29213;50.770;7.298;2023-02-08T10:59:34;102975.72;;;2.43;36.60
43621;BME280;29213;50.770;7.298;2023-02-08T11:02:00;103014.19;;;2.73;36.86
43621;BME280;29213;50.770;7.298;2023-02-08T11:04:26;102985.63;;;2.62;35.37
43621;BME280;29213;50.770;7.298;2023-02-08T11:06:51;102972.50;;;2.35;33.28
43621;BME280;29213;50.770;7.298;2023-02-08T11:09:27;102970.19;;;2.24;32.54
43621;BME280;29213;50.770;7.298;2023-02-08T11:11:57;102961.16;;;2.06;32.38
43621;BME280;29213;50.770;7.298;2023-02-08T11:14:26;102956.84;;;2.03;32.34
43621;BME280;29213;50.770;7.298;2023-02-08T11:16:56;102980.13;;;2.43;32.21
43621;BME280;29213;50.770;7.298;2023-02-08T11:19:33;102990.69;;;2.68;31.75
43621;BME280;29213;50.770;7.298;2023-02-08T11:22:01;102982.78;;;2.68;32.10
43621;BME280;29213;50.770;7.298;2023-02-08T11:24:35;102981.69;;;2.99;31.79
43621;BME280;29213;50.770;7.298;2023-02-08T11:32:44;102926.84;;;2.63;31.55
43621;BME280;29213;50.770;7.298;2023-02-08T11:35:30;102967.91;;;2.92;31.96
43621;BME280;29213;50.770;7.298;2023-02-08T11:37:58;102940.63;;;2.95;31.27
43621;BME280;29213;50.770;7.298;2023-02-08T11:40:43;102943.53;;;3.11;30.63
43621;BME280;29213;50.770;7.298;2023-02-08T11:43:25;102964.19;;;3.47;31.82
43621;BME280;29213;50.770;7.298;2023-02-08T11:45:53;102904.28;;;3.05;29.85
43621;BME280;29213;50.770;7.298;2023-02-08T11:48:23;102953.16;;;3.36;30.26
43621;BME280;29213;50.770;7.298;2023-02-08T11:50:55;102946.13;;;3.37;29.71
43621;BME280;29213;50.770;7.298;2023-02-08T11:53:28;102935.09;;;3.27;29.45
43621;BME280;29213;50.770;7.298;2023-02-08T11:56:13;102913.44;;;3.18;30.08
43621;BME280;29213;50.770;7.298;2023-02-08T11:58:40;102943.00;;;3.49;31.00
43621;BME280;29213;50.770;7.298;2023-02-08T12:01:18;102928.75;;;3.55;29.78
43621;BME280;29213;50.770;7.298;2023-02-08T12:03:44;102795.72;;;2.74;29.90
43621;BME280;29213;50.770;7.298;2023-02-08T12:06:22;102934.53;;;3.87;32.06
43621;BME280;29213;50.770;7.298;2023-02-08T12:11:47;102914.19;;;3.91;29.52
43621;BME280;29213;50.770;7.298;2023-02-08T12:14:37;102922.78;;;4.16;30.93
43621;BME280;29213;50.770;7.298;2023-02-08T12:25:40;102916.13;;;4.08;28.38
43621;BME280;29213;50.770;7.298;2023-02-08T12:28:24;102875.78;;;4.06;26.63
43621;BME280;29213;50.770;7.298;2023-02-08T12:31:09;102866.41;;;4.19;28.33
43621;BME280;29213;50.770;7.298;2023-02-08T12:37:02;102850.47;;;4.43;27.75
43621;BME280;29213;50.770;7.298;2023-02-08T12:39:53;102874.75;;;4.91;26.51
43621;BME280;29213;50.770;7.298;2023-02-08T12:42:57;102876.88;;;4.83;26.45
43621;BME280;29213;50.770;7.298;2023-02-08T12:52:12;102861.75;;;4.87;25.29
43621;BME280;29213;50.770;7.298;2023-02-08T12:54:38;102836.34;;;4.84;26.60
43621;BME280;29213;50.770;7.298;2023-02-08T12:57:06;102830.75;;;5.29;27.57
43621;BME280;29213;50.770;7.298;2023-02-08T12:59:40;102783.44;;;5.42;27.90
43621;BME280;29213;50.770;7.298;2023-02-08T13:05:15;102844.56;;;6.59;26.34
43621;BME280;29213;50.770;7.298;2023-02-08T13:07:43;102808.72;;;6.53;26.64
43621;BME280;29213;50.770;7.298;2023-02-08T13:10:32;102841.13;;;6.75;25.58
43621;BME280;29213;50.770;7.298;2023-02-08T13:13:12;102837.97;;;6.84;26.17
43621;BME280;29213;50.770;7.298;2023-02-08T13:15:44;102846.78;;;7.01;26.66
43621;BME280;29213;50.770;7.298;2023-02-08T13:20:42;102827.19;;;6.87;25.67
43621;BME280;29213;50.770;7.298;2023-02-08T13:23:17;102768.28;;;6.50;25.27
43621;BME280;29213;50.770;7.298;2023-02-08T13:25:44;102813.00;;;6.56;24.00
43621;BME280;29213;50.770;7.298;2023-02-08T13:28:18;102762.44;;;6.09;24.15
43621;BME280;29213;50.770;7.298;2023-02-08T13:30:45;102827.19;;;6.20;24.44
43621;BME280;29213;50.770;7.298;2023-02-08T13:33:21;102781.03;;;6.25;25.77
43621;BME280;29213;50.770;7.298;2023-02-08T13:35:51;102792.16;;;6.66;24.68
43621;BME280;29213;50.770;7.298;2023-02-08T13:38:21;102818.56;;;6.83;24.96
43621;BME280;29213;50.770;7.298;2023-02-08T13:41:02;102771.63;;;7.18;24.57
43621;BME280;29213;50.770;7.298;2023-02-08T13:43:49;102807.28;;;7.28;23.22
43621;BME280;29213;50.770;7.298;2023-02-08T13:46:17;102729.28;;;6.53;24.52
43621;BME280;29213;50.770;7.298;2023-02-08T13:48:53;102793.44;;;6.91;26.02
43621;BME280;29213;50.770;7.298;2023-02-08T13:54:17;102796.84;;;6.61;24.12
43621;BME280;29213;50.770;7.298;2023-02-08T13:56:44;102757.97;;;6.27;25.30
43621;BME280;29213;50.770;7.298;2023-02-08T14:04:42;102745.47;;;6.13;25.77
43621;BME280;29213;50.770;7.298;2023-02-08T14:10:04;102753.69;;;5.73;26.04
43621;BME280;29213;50.770;7.298;2023-02-08T14:12:40;102758.84;;;5.59;25.96
43621;BME280;29213;50.770;7.298;2023-02-08T14:17:41;102717.75;;;5.34;25.47
43621;BME280;29213;50.770;7.298;2023-02-08T14:20:18;102742.03;;;5.42;25.08
43621;BME280;29213;50.770;7.298;2023-02-08T14:22:56;102789.56;;;5.79;26.07
43621;BME280;29213;50.770;7.298;2023-02-08T14:25:26;102784.19;;;5.81;26.44
43621;BME280;29213;50.770;7.298;2023-02-08T14:27:59;102693.59;;;5.24;25.48
43621;BME280;29213;50.770;7.298;2023-02-08T14:30:28;102774.13;;;5.87;25.21
43621;BME280;29213;50.770;7.298;2023-02-08T14:35:32;102752.78;;;5.74;26.33
43621;BME280;29213;50.770;7.298;2023-02-08T14:40:56;102756.09;;;5.96;25.54
43621;BME280;29213;50.770;7.298;2023-02-08T14:43:32;102765.19;;;5.90;25.53
43621;BME280;29213;50.770;7.298;2023-02-08T14:49:07;102736.00;;;5.58;26.50
43621;BME280;29213;50.770;7.298;2023-02-08T14:51:37;102719.19;;;5.41;26.61
43621;BME280;29213;50.770;7.298;2023-02-08T14:54:16;102730.09;;;4.79;25.84
43621;BME280;29213;50.770;7.298;2023-02-08T14:56:53;102764.56;;;4.76;27.05
43621;BME280;29213;50.770;7.298;2023-02-08T14:59:23;102725.69;;;4.39;27.43
43621;BME280;29213;50.770;7.298;2023-02-08T15:01:54;102657.81;;;4.05;27.78
43621;BME280;29213;50.770;7.298;2023-02-08T15:04:21;102718.22;;;4.30;26.71